Time;durP1;ratioP1;P1;durP2;ratioP2;P2;SDS_P1;SDS_P2;PMS_P1;PMS_P2;Temp;Humidity;BMP_temperature;BMP_pressure;BME280_temperature;BME280_humidity;BME280_pressure;Samples;Min_cycle;Max_cycle;Signal;HPM_P1;HPM_P2
2022/07/30 00:01:29;;;;;;;4.35;2.90;;;;;;;25.16;42.32;94661.69;4189022;28;20044;-54
2022/07/30 00:03:32;;;;;;;4.20;3.05;;;;;;;25.14;42.30;94654.75;4193619;28;20144;-54
2022/07/30 00:05:34;;;;;;;5.47;3.28;;;;;;;25.12;42.71;94654.19;4205243;28;20078;-54
2022/07/30 00:07:36;;;;;;;5.93;3.33;;;;;;;25.12;42.36;94656.84;4181401;28;20075;-56
2022/07/30 00:09:38;;;;;;;4.93;3.58;;;;;;;25.09;42.21;94651.97;4193167;28;20150;-56
2022/07/30 00:11:39;;;;;;;4.38;3.22;;;;;;;25.07;42.59;94647.94;4193555;28;20049;-55
2022/07/30 00:13:41;;;;;;;4.30;3.25;;;;;;;25.05;42.48;94650.06;4193559;28;20423;-54
2022/07/30 00:15:43;;;;;;;4.78;3.47;;;;;;;25.05;42.58;94647.38;4192474;28;20048;-53
2022/07/30 00:17:45;;;;;;;5.15;3.05;;;;;;;25.01;42.60;94646.25;4193744;28;20045;-54
2022/07/30 00:19:49;;;;;;;4.93;3.28;;;;;;;24.90;42.35;94643.44;4192715;28;20127;-54
2022/07/30 00:21:54;;;;;;;4.57;3.15;;;;;;;24.88;42.53;94647.44;4205485;28;20163;-54
2022/07/30 00:23:55;;;;;;;4.65;3.28;;;;;;;24.89;42.52;94655.25;4176977;28;20719;-54
2022/07/30 00:26:02;;;;;;;4.28;3.45;;;;;;;24.88;42.50;94645.56;4181359;28;20052;-55
2022/07/30 00:28:04;;;;;;;4.82;3.22;;;;;;;24.84;42.78;94644.44;4193785;28;20044;-54
2022/07/30 00:30:06;;;;;;;6.40;3.60;;;;;;;24.86;42.68;94653.03;4192880;28;20052;-53
2022/07/30 00:32:08;;;;;;;5.28;3.40;;;;;;;24.87;42.79;94646.63;4180263;28;20049;-52
2022/07/30 00:34:11;;;;;;;6.63;3.38;;;;;;;24.88;42.87;94650.91;4192367;28;20044;-55
2022/07/30 00:36:13;;;;;;;5.35;3.50;;;;;;;24.90;42.59;94645.31;4193755;28;20079;-56
2022/07/30 00:38:15;;;;;;;5.07;3.10;;;;;;;24.91;42.60;94645.09;4191332;28;20568;-52
2022/07/30 00:40:16;;;;;;;4.28;3.10;;;;;;;24.91;42.76;94638.91;4193669;28;20481;-53
2022/07/30 00:42:24;;;;;;;7.18;3.50;;;;;;;24.89;42.64;94641.84;4193201;28;20057;-53
2022/07/30 00:44:26;;;;;;;3.55;2.90;;;;;;;24.88;42.55;94644.75;4193771;28;20048;-50
2022/07/30 00:46:28;;;;;;;6.32;3.42;;;;;;;24.88;42.76;94644.75;4178234;28;20130;-55
2022/07/30 00:48:30;;;;;;;4.57;3.35;;;;;;;24.86;42.81;94647.69;4192468;28;20485;-54
2022/07/30 00:50:31;;;;;;;4.88;4.00;;;;;;;24.85;43.16;94646.06;4186946;28;20045;-53
2022/07/30 00:52:35;;;;;;;4.40;3.60;;;;;;;24.84;42.92;94646.31;4195032;28;20078;-51
2022/07/30 00:54:37;;;;;;;4.07;3.67;;;;;;;24.84;42.90;94638.28;4196206;28;20124;-54
2022/07/30 00:56:38;;;;;;;4.40;3.50;;;;;;;24.83;43.03;94647.38;4205228;28;20113;-55
2022/07/30 00:58:40;;;;;;;4.65;3.42;;;;;;;24.83;43.43;94637.47;4184721;28;20044;-54
2022/07/30 01:00:42;;;;;;;5.35;3.50;;;;;;;24.84;43.15;94635.59;4202665;28;20055;-54
2022/07/30 01:02:44;;;;;;;3.95;3.40;;;;;;;24.83;43.10;94636.69;4188481;28;20174;-56
2022/07/30 01:04:46;;;;;;;5.15;3.25;;;;;;;24.81;43.37;94636.91;4193063;28;20055;-53
2022/07/30 01:06:47;;;;;;;6.88;3.25;;;;;;;24.80;43.44;94634.47;4191608;28;20074;-51
2022/07/30 01:08:49;;;;;;;4.93;3.13;;;;;;;24.79;43.52;94630.19;4192916;28;20048;-54
2022/07/30 01:10:51;;;;;;;7.35;3.67;;;;;;;24.79;43.07;94644.38;4192680;28;20048;-53
2022/07/30 01:12:53;;;;;;;7.95;3.58;;;;;;;24.75;43.08;94640.59;4192710;28;20061;-52
2022/07/30 01:14:56;;;;;;;4.88;3.70;;;;;;;24.75;43.28;94639.78;4175047;28;20142;-51
2022/07/30 01:16:58;;;;;;;;;;;;;;;24.72;43.60;94638.41;4178943;28;20169;-51
2022/07/30 01:21:31;;;;;;;5.10;3.40;;;;;;;24.66;43.89;94637.53;4177507;28;20807;-52
2022/07/30 01:23:42;;;;;;;3.63;3.20;;;;;;;24.64;43.91;94634.28;4178874;28;20170;-54
2022/07/30 01:26:01;;;;;;;5.68;3.65;;;;;;;24.57;43.72;94635.56;4160908;28;20053;-57
2022/07/30 01:28:06;;;;;;;5.45;2.90;;;;;;;24.49;43.81;94632.22;4177115;28;20501;-54
2022/07/30 01:30:09;;;;;;;4.63;3.15;;;;;;;24.44;44.23;94636.69;4158991;28;20230;-54
2022/07/30 01:32:12;;;;;;;4.45;3.47;;;;;;;24.40;44.29;94638.22;4159603;28;20063;-54
2022/07/30 01:34:16;;;;;;;4.80;3.73;;;;;;;24.35;44.08;94638.97;4172445;28;20049;-54
2022/07/30 01:36:20;;;;;;;9.82;3.88;;;;;;;24.33;44.49;94644.56;4164835;28;20053;-55
2022/07/30 01:38:23;;;;;;;4.05;3.40;;;;;;;24.32;44.51;94636.78;4176718;28;20418;-55
2022/07/30 01:40:26;;;;;;;3.90;3.42;;;;;;;24.31;44.83;94635.97;4162016;28;20073;-53
2022/07/30 01:42:28;;;;;;;3.92;3.55;;;;;;;24.31;44.34;94644.00;4179565;28;20061;-55
2022/07/30 01:44:31;;;;;;;5.38;4.00;;;;;;;24.27;44.61;94636.72;4170406;28;20106;-54
2022/07/30 01:46:33;;;;;;;4.32;3.40;;;;;;;24.24;44.60;94640.69;4170362;28;20053;-55
2022/07/30 01:50:59;;;;;;;3.50;3.20;;;;;;;24.22;44.95;94636.63;4165003;28;20137;-56
2022/07/30 01:53:02;;;;;;;5.85;3.50;;;;;;;24.23;44.69;94646.28;4160981;28;20072;-53
2022/07/30 01:55:05;;;;;;;5.57;3.55;;;;;;;24.23;44.75;94646.28;4161004;28;20049;-53
2022/07/30 01:57:19;;;;;;;5.93;4.20;;;;;;;24.21;45.31;94646.53;4181242;28;20071;-59
2022/07/30 01:59:21;;;;;;;;;;;;;;;24.19;45.42;94647.84;4162804;28;20061;-52
2022/07/30 02:01:23;;;;;;;4.95;4.10;;;;;;;24.20;45.47;94642.25;4193954;28;19920;-53
2022/07/30 02:03:26;;;;;;;6.07;3.88;;;;;;;24.20;45.23;94638.72;4177239;28;20605;-52
2022/07/30 02:05:30;;;;;;;5.85;4.07;;;;;;;24.20;45.61;94650.28;4180606;28;20087;-52
2022/07/30 02:07:45;;;;;;;6.78;4.15;;;;;;;24.21;45.51;94643.03;4174276;28;20440;-53
2022/07/30 02:10:05;;;;;;;5.70;3.95;;;;;;;24.21;45.38;94638.50;4178201;28;20106;-54
2022/07/30 02:14:46;;;;;;;7.75;4.03;;;;;;;24.20;45.79;94641.41;4152918;28;20101;-52
2022/07/30 02:16:50;;;;;;;6.20;4.38;;;;;;;24.19;45.74;94635.25;4165795;28;20052;-53
2022/07/30 02:18:59;;;;;;;6.95;4.60;;;;;;;24.19;45.67;94634.44;4160708;28;20115;-54
2022/07/30 02:21:06;;;;;;;5.17;4.00;;;;;;;24.18;45.73;94627.47;4162188;28;20060;-55
2022/07/30 02:23:14;;;;;;;5.45;4.55;;;;;;;24.18;45.83;94627.47;4170648;28;20111;-55
2022/07/30 02:25:20;;;;;;;6.38;4.07;;;;;;;24.16;45.89;94630.41;4172717;28;20094;-55
2022/07/30 02:27:27;;;;;;;6.68;4.55;;;;;;;24.14;45.82;94631.72;4195194;28;20106;-54
2022/07/30 02:29:32;;;;;;;5.00;4.38;;;;;;;24.14;46.00;94629.03;4164297;28;20084;-54
2022/07/30 02:31:35;;;;;;;6.90;4.68;;;;;;;24.11;45.87;94625.78;4177183;28;20061;-53
2022/07/30 02:33:39;;;;;;;6.37;4.70;;;;;;;24.11;45.93;94620.44;4160863;28;20548;-54
2022/07/30 02:35:50;;;;;;;5.57;4.15;;;;;;;24.11;46.01;94625.78;4180965;28;20046;-55
2022/07/30 02:37:53;;;;;;;5.85;4.47;;;;;;;24.11;46.06;94627.63;4194085;28;20048;-52
2022/07/30 02:39:55;;;;;;;5.55;4.03;;;;;;;24.10;46.11;94626.81;4192937;28;20488;-55
2022/07/30 02:41:58;;;;;;;5.03;4.32;;;;;;;24.11;46.08;94624.97;4180626;28;20650;-53
2022/07/30 02:44:00;;;;;;;5.95;4.07;;;;;;;24.09;46.41;94624.38;4176458;28;20049;-54
2022/07/30 02:46:03;;;;;;;7.23;4.40;;;;;;;24.08;46.22;94620.91;4170207;28;20044;-54
2022/07/30 02:48:06;;;;;;;6.57;4.53;;;;;;;24.08;46.62;94620.09;4152705;28;20329;-54
2022/07/30 02:50:08;;;;;;;;;;;;;;;24.06;46.28;94627.56;4161411;28;20477;-52
2022/07/30 02:52:12;;;;;;;5.55;3.80;;;;;;;24.02;46.25;94621.09;4189435;28;19920;-53
2022/07/30 02:54:15;;;;;;;6.18;3.90;;;;;;;23.97;46.36;94619.16;4180749;28;20052;-53
2022/07/30 02:56:19;;;;;;;6.40;4.13;;;;;;;23.94;46.55;94622.31;4177175;28;20111;-51
2022/07/30 02:58:22;;;;;;;9.52;4.47;;;;;;;23.92;46.80;94624.44;4184583;28;20049;-56
2022/07/30 03:00:24;;;;;;;9.30;4.47;;;;;;;23.92;46.63;94616.41;4178290;28;20057;-60
2022/07/30 03:02:26;;;;;;;5.22;3.90;;;;;;;23.91;46.76;94612.09;4174304;28;20069;-54
2022/07/30 03:04:30;;;;;;;4.80;4.20;;;;;;;23.92;46.81;94611.84;4175401;28;20207;-52
2022/07/30 03:06:32;;;;;;;5.13;4.07;;;;;;;23.90;47.21;94618.50;4160792;28;20045;-52
2022/07/30 03:08:34;;;;;;;7.07;4.57;;;;;;;23.89;47.05;94611.53;4175176;28;20057;-54
2022/07/30 03:10:37;;;;;;;6.35;4.43;;;;;;;23.88;47.30;94615.28;4174228;28;20049;-54
2022/07/30 03:12:41;;;;;;;6.13;4.47;;;;;;;23.85;47.09;94611.19;4190432;28;20539;-55
2022/07/30 03:14:42;;;;;;;10.98;5.22;;;;;;;23.84;47.15;94609.59;4166069;28;20924;-54
2022/07/30 03:16:54;;;;;;;4.72;4.20;;;;;;;23.84;47.62;94611.47;4169486;28;20166;-52
2022/07/30 03:18:58;;;;;;;5.25;4.30;;;;;;;23.87;47.60;94618.97;4165716;28;20449;-54
2022/07/30 03:20:59;;;;;;;;;;;;;;;23.87;47.54;94614.44;4186454;28;20599;-52
2022/07/30 03:23:02;;;;;;;6.03;4.35;;;;;;;23.88;47.68;94610.72;4205376;28;20095;-53
2022/07/30 03:25:04;;;;;;;6.15;4.38;;;;;;;23.88;47.76;94610.72;4158596;28;20053;-56
2022/07/30 03:27:07;;;;;;;6.00;4.45;;;;;;;23.88;47.83;94610.72;4175030;28;20041;-55
2022/07/30 03:29:09;;;;;;;6.70;4.83;;;;;;;23.85;47.72;94613.88;4181897;28;20053;-54
2022/07/30 03:31:13;;;;;;;5.53;4.90;;;;;;;23.81;48.10;94617.28;4147321;28;20811;-48
2022/07/30 03:33:15;;;;;;;8.45;4.53;;;;;;;23.81;47.85;94609.25;4159496;28;20430;-45
2022/07/30 03:35:18;;;;;;;7.40;4.70;;;;;;;23.79;48.22;94620.22;4160033;28;20052;-46
2022/07/30 03:37:20;;;;;;;6.18;4.55;;;;;;;23.74;48.07;94624.63;4177443;28;20057;-43
2022/07/30 03:39:23;;;;;;;5.15;4.65;;;;;;;23.70;47.93;94619.78;4175389;28;20056;-44
2022/07/30 03:41:25;;;;;;;9.07;4.80;;;;;;;23.68;48.00;94624.56;4191025;28;20083;-43
2022/07/30 03:43:28;;;;;;;5.35;4.75;;;;;;;23.71;48.39;94626.72;4177306;28;20278;-47
2022/07/30 03:45:35;;;;;;;7.85;5.07;;;;;;;23.72;48.71;94624.88;4176929;28;20358;-45
2022/07/30 03:47:40;;;;;;;6.32;4.43;;;;;;;23.70;48.31;94625.13;4176302;28;20106;-47
2022/07/30 03:49:42;;;;;;;6.13;4.95;;;;;;;23.73;48.38;94633.72;4176962;28;20049;-48
2022/07/30 03:51:45;;;;;;;5.97;4.15;;;;;;;23.76;48.63;94633.25;4176817;28;20052;-45
2022/07/30 03:53:47;;;;;;;5.63;5.07;;;;;;;23.77;48.36;94633.03;4176858;28;20532;-45
2022/07/30 03:55:50;;;;;;;6.05;4.90;;;;;;;23.77;48.29;94630.34;4177100;28;20555;-47
2022/07/30 03:57:51;;;;;;;7.63;5.37;;;;;;;23.79;48.66;94633.59;4176285;28;20044;-46
2022/07/30 03:59:53;;;;;;;6.32;4.80;;;;;;;23.80;48.49;94634.41;4177348;28;20077;-46
2022/07/30 04:02:02;;;;;;;9.93;5.00;;;;;;;23.79;48.39;94638.09;4177372;28;20053;-48
2022/07/30 04:04:09;;;;;;;7.68;5.10;;;;;;;23.84;48.27;94635.53;4178697;28;20143;-45
2022/07/30 04:06:10;;;;;;;6.80;5.65;;;;;;;23.87;47.97;94635.84;4175057;28;20053;-44
2022/07/30 04:08:12;;;;;;;6.32;5.47;;;;;;;23.86;48.36;94636.09;4176012;28;20082;-46
2022/07/30 04:10:15;;;;;;;8.57;5.80;;;;;;;23.81;48.60;94644.03;4181752;28;20060;-49
2022/07/30 04:12:16;;;;;;;9.93;6.20;;;;;;;23.59;49.68;94644.72;4186417;28;20103;-46
2022/07/30 04:14:18;;;;;;;7.45;5.22;;;;;;;23.24;50.42;94636.88;4177590;28;20462;-46
2022/07/30 04:16:27;;;;;;;9.13;6.45;;;;;;;23.02;51.26;94642.91;4176183;28;20060;-46
2022/07/30 04:18:46;;;;;;;8.40;6.68;;;;;;;22.96;51.07;94640.34;4178525;28;20071;-46
2022/07/30 04:20:49;;;;;;;12.30;6.90;;;;;;;23.02;51.34;94645.56;4159510;28;20049;-45
2022/07/30 04:22:52;;;;;;;9.82;6.60;;;;;;;23.07;50.87;94645.66;4158731;28;20484;-47
2022/07/30 04:24:55;;;;;;;10.68;6.35;;;;;;;22.97;51.66;94648.09;4160992;28;20064;-45
2022/07/30 04:27:01;;;;;;;9.25;7.07;;;;;;;22.49;53.06;94647.41;4144919;28;20127;-46
2022/07/30 04:29:05;;;;;;;9.85;6.35;;;;;;;22.35;53.08;94647.88;4159613;28;20077;-44
2022/07/30 04:31:07;;;;;;;9.45;5.90;;;;;;;22.15;53.76;94645.53;4159492;28;20050;-46
2022/07/30 04:33:09;;;;;;;10.32;5.97;;;;;;;22.03;54.06;94643.69;4165522;28;20600;-53
2022/07/30 04:35:11;;;;;;;7.43;5.85;;;;;;;21.98;54.22;94646.22;4177793;28;20114;-53
2022/07/30 04:37:32;;;;;;;12.57;6.32;;;;;;;21.95;54.31;94646.69;4176497;28;20116;-50
2022/07/30 04:39:34;;;;;;;9.52;6.47;;;;;;;21.86;54.86;94654.22;4175559;28;20053;-54
2022/07/30 04:41:37;;;;;;;10.70;6.50;;;;;;;21.76;55.26;94655.84;4176645;28;20045;-54
2022/07/30 04:43:50;;;;;;;;;;;;;;;21.63;55.47;94660.31;4177254;28;20063;-51
2022/07/30 04:45:52;;;;;;;9.93;6.75;;;;;;;21.45;55.92;94663.06;4176219;28;20357;-52
2022/07/30 04:47:53;;;;;;;12.38;7.45;;;;;;;21.39;56.07;94661.28;4181521;28;20543;-53
2022/07/30 04:49:56;;;;;;;10.05;6.88;;;;;;;21.38;56.10;94656.97;4191336;28;20175;-51
2022/07/30 04:51:58;;;;;;;14.88;6.97;;;;;;;21.47;55.90;94666.31;4152267;28;20820;-52
2022/07/30 04:54:01;;;;;;;7.43;6.43;;;;;;;21.53;55.50;94657.44;4186206;28;20048;-50
2022/07/30 04:56:03;;;;;;;8.03;6.47;;;;;;;21.53;55.84;94654.75;4163148;28;20061;-52
2022/07/30 04:58:06;;;;;;;8.00;6.60;;;;;;;21.80;55.09;94646.34;4160068;28;20056;-55
2022/07/30 05:00:08;;;;;;;14.48;7.60;;;;;;;21.75;55.33;94648.88;4179046;28;20049;-54
2022/07/30 05:02:11;;;;;;;10.65;6.57;;;;;;;21.85;55.01;94641.94;4178105;28;20130;-50
2022/07/30 05:04:13;;;;;;;12.10;6.22;;;;;;;21.93;54.48;94638.09;4184960;28;20109;-49
2022/07/30 05:06:16;;;;;;;12.93;6.78;;;;;;;21.92;54.86;94630.34;4172299;28;20045;-52
2022/07/30 05:08:17;;;;;;;9.07;6.82;;;;;;;22.10;54.09;94638.22;4157173;28;20505;-52
2022/07/30 05:10:19;;;;;;;10.45;6.32;;;;;;;22.32;53.36;94641.16;4162434;28;20060;-53
2022/07/30 05:12:31;;;;;;;9.68;6.05;;;;;;;22.56;52.85;94638.44;4173403;28;20551;-52
2022/07/30 05:14:33;;;;;;;11.75;6.43;;;;;;;22.66;52.65;94641.34;4176182;28;20060;-52
2022/07/30 05:16:34;;;;;;;9.07;6.60;;;;;;;22.66;52.81;94641.34;4190056;28;20113;-50
2022/07/30 05:18:36;;;;;;;9.77;6.15;;;;;;;22.71;52.64;94649.44;4176515;28;20069;-51
2022/07/30 05:20:38;;;;;;;9.43;6.25;;;;;;;22.86;52.22;94647.06;4182964;28;20040;-53
2022/07/30 05:22:40;;;;;;;12.43;6.03;;;;;;;22.78;52.56;94647.47;4182701;28;20057;-52
2022/07/30 05:24:51;;;;;;;7.10;6.07;;;;;;;22.73;52.38;94642.00;4174397;28;20053;-53
2022/07/30 05:26:53;;;;;;;10.20;6.32;;;;;;;22.86;52.30;94647.06;4176498;28;20053;-50
2022/07/30 05:28:54;;;;;;;8.05;6.18;;;;;;;22.82;52.22;94645.13;4192769;28;20044;-55
2022/07/30 05:30:57;;;;;;;7.15;6.22;;;;;;;22.92;52.10;94644.53;4193118;28;20045;-52
2022/07/30 05:32:59;;;;;;;8.70;6.20;;;;;;;23.09;52.01;94653.44;4192714;28;20074;-54
2022/07/30 05:35:08;;;;;;;10.73;5.80;;;;;;;23.26;51.89;94645.47;4193223;28;20048;-54
2022/07/30 05:37:10;;;;;;;10.93;6.07;;;;;;;23.44;51.27;94649.78;4176543;28;20048;-52
2022/07/30 05:39:13;;;;;;;7.55;5.72;;;;;;;23.62;50.51;94654.13;4175071;28;20052;-53
2022/07/30 05:41:15;;;;;;;8.77;5.90;;;;;;;23.72;50.37;94648.94;4175692;28;20539;-49
2022/07/30 05:43:32;;;;;;;8.20;6.40;;;;;;;23.68;50.51;94653.16;4176411;28;20055;-50
2022/07/30 05:45:34;;;;;;;13.07;5.63;;;;;;;23.60;50.53;94649.03;4175300;28;20060;-52
2022/07/30 05:47:36;;;;;;;9.10;6.43;;;;;;;23.75;50.51;94647.63;4175996;28;20049;-52
2022/07/30 05:49:38;;;;;;;13.65;6.43;;;;;;;23.92;49.86;94645.84;4176078;28;20060;-53
2022/07/30 05:51:40;;;;;;;9.80;6.03;;;;;;;24.12;49.42;94651.47;4177960;28;20053;-54
2022/07/30 05:53:42;;;;;;;10.68;6.93;;;;;;;24.31;49.04;94649.34;4177509;28;20048;-53
2022/07/30 05:55:44;;;;;;;10.50;5.78;;;;;;;24.42;49.10;94653.00;4179115;28;20060;-53
2022/07/30 05:57:46;;;;;;;10.73;6.45;;;;;;;24.20;49.18;94647.59;4179362;28;20122;-53
2022/07/30 05:59:49;;;;;;;9.35;6.00;;;;;;;24.12;49.58;94654.16;4176322;28;20051;-55
2022/07/30 06:01:50;;;;;;;9.20;6.53;;;;;;;23.99;49.82;94657.16;4176396;28;20049;-54
2022/07/30 06:03:53;;;;;;;10.18;6.38;;;;;;;24.05;49.89;94653.53;4177690;28;20106;-52
2022/07/30 06:05:55;;;;;;;11.63;7.10;;;;;;;23.90;49.89;94648.75;4174531;28;20048;-52
2022/07/30 06:07:57;;;;;;;8.43;6.15;;;;;;;24.00;49.90;94645.41;4175599;28;20436;-53
2022/07/30 06:09:59;;;;;;;8.93;6.03;;;;;;;24.24;49.80;94658.59;4179194;28;20053;-52
2022/07/30 06:12:00;;;;;;;8.40;6.28;;;;;;;24.32;49.05;94650.97;4179406;28;20053;-55
2022/07/30 06:14:02;;;;;;;8.93;6.20;;;;;;;24.40;49.35;94654.28;4179255;28;20052;-53
2022/07/30 06:16:04;;;;;;;8.02;5.85;;;;;;;24.54;48.92;94655.56;4158189;28;20054;-55
2022/07/30 06:18:06;;;;;;;14.50;6.60;;;;;;;24.64;48.80;94661.06;4176198;28;20072;-52
2022/07/30 06:20:09;;;;;;;9.15;6.40;;;;;;;24.81;48.42;94653.00;4176381;28;20103;-53
2022/07/30 06:22:10;;;;;;;9.88;6.03;;;;;;;25.01;48.16;94660.47;4177935;28;20103;-53
2022/07/30 06:24:12;;;;;;;9.85;6.28;;;;;;;25.12;47.59;94661.38;4171462;28;20091;-55
2022/07/30 06:26:14;;;;;;;9.73;5.68;;;;;;;25.03;47.58;94655.66;4171538;28;20106;-53
2022/07/30 06:28:16;;;;;;;8.45;6.18;;;;;;;25.02;47.80;94651.38;4176885;28;20053;-52
2022/07/30 06:30:39;;;;;;;10.70;5.97;;;;;;;25.08;47.88;94646.88;4177495;28;20052;-54
2022/07/30 06:32:42;;;;;;;11.85;5.75;;;;;;;25.25;47.29;94642.28;4179381;28;20079;-53
2022/07/30 06:34:44;;;;;;;7.20;5.50;;;;;;;25.30;47.11;94642.31;4182513;28;20094;-52
2022/07/30 06:36:46;;;;;;;9.00;6.25;;;;;;;25.42;46.99;94638.69;4168543;28;20053;-53
2022/07/30 06:38:47;;;;;;;10.27;5.90;;;;;;;25.51;46.95;94643.34;4184276;28;20436;-55
2022/07/30 06:40:49;;;;;;;9.48;5.50;;;;;;;25.66;46.59;94640.00;4169246;28;20049;-53
2022/07/30 06:42:51;;;;;;;5.82;5.20;;;;;;;25.82;46.34;94632.06;4178124;28;20139;-52
2022/07/30 06:44:52;;;;;;;6.95;4.38;;;;;;;25.95;46.26;94631.66;4170535;28;20114;-53
2022/07/30 06:46:54;;;;;;;11.73;4.93;;;;;;;26.00;46.36;94628.22;4176137;28;20041;-55
2022/07/30 06:48:56;;;;;;;8.48;4.55;;;;;;;26.01;45.68;94630.66;4181732;28;20045;-53
2022/07/30 06:50:58;;;;;;;5.40;4.55;;;;;;;26.20;45.60;94624.84;4177967;28;20694;-52
2022/07/30 06:52:59;;;;;;;6.13;4.38;;;;;;;26.38;44.96;94629.81;4172615;28;20111;-54
2022/07/30 06:55:01;;;;;;;7.03;4.97;;;;;;;26.49;44.09;94620.72;4172490;28;20477;-53
2022/07/30 06:57:03;;;;;;;5.60;4.45;;;;;;;26.50;43.91;94614.31;4175728;28;20052;-53
2022/07/30 06:59:05;;;;;;;7.53;4.53;;;;;;;26.45;44.48;94616.94;4174232;28;20053;-52
2022/07/30 07:01:07;;;;;;;5.10;4.45;;;;;;;26.60;44.09;94608.19;4172184;28;20064;-50
2022/07/30 07:03:11;;;;;;;6.18;5.07;;;;;;;26.53;44.42;94616.47;4171411;28;20116;-50
2022/07/30 07:05:13;;;;;;;8.10;4.78;;;;;;;26.66;44.50;94609.03;4169035;28;20053;-51
2022/07/30 07:07:15;;;;;;;5.85;4.35;;;;;;;26.76;44.21;94611.78;4173139;28;20052;-55
2022/07/30 07:09:37;;;;;;;5.22;4.70;;;;;;;26.87;43.95;94608.03;4172381;28;20457;-53
2022/07/30 07:11:45;;;;;;;8.63;4.70;;;;;;;27.01;43.40;94608.34;4167334;28;20053;-50
2022/07/30 07:13:46;;;;;;;6.22;4.55;;;;;;;27.08;43.16;94617.00;4168095;28;20049;-50
2022/07/30 07:15:48;;;;;;;7.43;5.07;;;;;;;27.02;43.38;94611.84;4174071;28;20107;-52
2022/07/30 07:17:50;;;;;;;5.53;4.40;;;;;;;27.11;43.34;94610.28;4179021;28;20052;-54
2022/07/30 07:19:52;;;;;;;5.95;4.70;;;;;;;27.13;42.94;94606.25;4172496;28;20057;-52
2022/07/30 07:22:02;;;;;;;9.40;4.95;;;;;;;27.14;43.01;94609.72;4172995;28;20056;-53
2022/07/30 07:24:04;;;;;;;9.75;4.85;;;;;;;27.21;42.72;94607.63;4180201;28;20052;-52
2022/07/30 07:26:06;;;;;;;8.95;4.97;;;;;;;27.18;43.25;94600.06;4169337;28;20072;-54
2022/07/30 07:28:08;;;;;;;8.05;4.75;;;;;;;27.11;42.86;94607.59;4165995;28;20092;-52
2022/07/30 07:30:13;;;;;;;9.30;5.05;;;;;;;27.21;42.89;94607.63;4162486;28;20134;-53
2022/07/30 07:32:15;;;;;;;8.77;4.68;;;;;;;27.27;42.52;94614.63;4167056;28;20094;-52
2022/07/30 07:34:18;;;;;;;7.47;5.18;;;;;;;27.10;43.27;94608.63;4170775;28;20110;-54
2022/07/30 07:36:20;;;;;;;6.15;4.70;;;;;;;27.11;43.59;94610.28;4172086;28;20040;-53
2022/07/30 07:38:22;;;;;;;;;;;;;;;27.24;42.91;94604.41;4173880;28;20103;-51
2022/07/30 07:40:24;;;;;;;7.07;4.85;;;;;;;27.36;42.98;94604.97;4172511;28;20023;-53
2022/07/30 07:42:26;;;;;;;7.65;4.80;;;;;;;27.55;42.79;94604.44;4172154;28;20056;-54
2022/07/30 07:44:27;;;;;;;7.80;4.90;;;;;;;27.70;42.72;94600.97;4170883;28;20052;-52
2022/07/30 07:46:29;;;;;;;6.32;4.70;;;;;;;27.48;42.06;94599.34;4174272;28;20559;-52
2022/07/30 07:48:34;;;;;;;8.00;4.53;;;;;;;27.58;42.05;94606.63;4179048;28;20050;-50
2022/07/30 07:50:36;;;;;;;6.93;4.28;;;;;;;27.56;42.40;94603.38;4161276;28;20089;-52
2022/07/30 07:52:38;;;;;;;6.80;5.00;;;;;;;27.63;42.61;94601.22;4170453;28;20049;-52
2022/07/30 07:54:40;;;;;;;5.72;4.55;;;;;;;27.77;42.30;94605.00;4181240;28;20056;-51
2022/07/30 07:56:42;;;;;;;21.77;5.13;;;;;;;28.02;41.87;94597.22;4179903;28;20408;-57
2022/07/30 07:58:46;;;;;;;6.85;4.47;;;;;;;28.23;41.98;94598.00;4170767;28;20508;-55
2022/07/30 08:00:49;;;;;;;4.60;4.05;;;;;;;28.36;43.43;94597.44;4172515;28;20045;-56
2022/07/30 08:02:51;;;;;;;8.30;4.05;;;;;;;28.44;44.26;94598.75;4177731;28;20508;-55
2022/07/30 08:04:53;;;;;;;4.63;4.18;;;;;;;28.62;42.34;94597.41;4175322;28;20049;-54
2022/07/30 08:06:55;;;;;;;5.45;4.40;;;;;;;28.68;41.05;94593.59;4176091;28;20063;-54
2022/07/30 08:08:57;;;;;;;11.13;4.97;;;;;;;28.63;40.28;94593.59;4174443;28;20105;-55
2022/07/30 08:10:58;;;;;;;6.60;4.45;;;;;;;28.53;40.56;94594.47;4174869;28;20057;-55
2022/07/30 08:13:02;;;;;;;6.38;4.93;;;;;;;28.51;41.00;94589.34;4177219;28;20045;-55
2022/07/30 08:15:05;;;;;;;5.35;4.63;;;;;;;28.68;41.79;94594.41;4170774;28;20052;-56
2022/07/30 08:17:06;;;;;;;6.15;4.30;;;;;;;28.86;41.52;94592.97;4172575;28;20102;-57
2022/07/30 08:19:09;;;;;;;5.72;4.53;;;;;;;29.02;41.26;94590.19;4175631;28;20056;-54
2022/07/30 08:21:11;;;;;;;7.65;4.50;;;;;;;29.12;40.07;94588.28;4178318;28;20178;-51
2022/07/30 08:23:12;;;;;;;6.55;4.28;;;;;;;29.31;41.90;94593.84;4181738;28;20048;-55
2022/07/30 08:25:14;;;;;;;5.07;4.35;;;;;;;29.34;39.67;94592.47;4180135;28;20533;-53
2022/07/30 08:27:25;;;;;;;9.00;4.53;;;;;;;29.45;39.29;94585.94;4177098;28;20135;-53
2022/07/30 08:29:28;;;;;;;8.60;4.78;;;;;;;29.45;38.29;94579.72;4180238;28;20437;-53
2022/07/30 08:31:30;;;;;;;;;;;;;;;29.49;38.64;94583.47;4175141;28;20052;-56
2022/07/30 08:33:32;;;;;;;7.20;4.10;;;;;;;29.50;38.12;94582.41;4174949;28;19979;-54
2022/07/30 08:35:33;;;;;;;6.57;4.50;;;;;;;29.36;38.67;94582.22;4170961;28;20060;-54
2022/07/30 08:37:36;;;;;;;6.13;4.90;;;;;;;29.14;38.34;94583.41;4170256;28;20040;-59
2022/07/30 08:39:37;;;;;;;7.43;4.47;;;;;;;29.18;38.44;94586.38;4177324;28;20108;-61
2022/07/30 08:41:40;;;;;;;9.02;4.43;;;;;;;29.37;38.96;94579.25;4171147;28;20596;-58
2022/07/30 08:43:46;;;;;;;9.38;4.75;;;;;;;29.51;38.12;94576.72;4167497;28;20465;-55
2022/07/30 08:45:48;;;;;;;12.15;5.28;;;;;;;29.71;42.23;94577.69;4157192;28;20045;-54
2022/07/30 08:47:51;;;;;;;8.02;4.30;;;;;;;29.86;38.60;94565.94;4189187;28;20053;-58
2022/07/30 08:49:54;;;;;;;6.00;4.45;;;;;;;29.73;37.45;94567.41;4168106;28;20049;-57
2022/07/30 08:51:56;;;;;;;8.48;4.65;;;;;;;29.72;37.19;94563.09;4165377;28;20781;-58
2022/07/30 08:53:59;;;;;;;8.25;4.50;;;;;;;29.46;37.78;94565.16;4179446;28;20049;-56
2022/07/30 08:56:03;;;;;;;6.47;4.70;;;;;;;29.57;37.37;94569.38;4176331;28;20202;-54
2022/07/30 08:58:14;;;;;;;7.18;4.93;;;;;;;29.69;37.30;94559.06;4158552;28;20049;-56
2022/07/30 09:00:20;;;;;;;6.50;4.63;;;;;;;29.93;35.91;94555.63;4159403;28;20076;-53
2022/07/30 09:02:21;;;;;;;12.88;5.15;;;;;;;29.90;35.40;94548.06;4176448;28;20049;-54
2022/07/30 09:04:28;;;;;;;5.80;4.63;;;;;;;30.06;35.35;94557.66;4172414;28;20049;-54
2022/07/30 09:06:30;;;;;;;8.13;5.30;;;;;;;29.97;35.74;94554.78;4166297;28;20053;-50
2022/07/30 09:08:32;;;;;;;6.20;4.60;;;;;;;30.09;35.66;94543.56;4183639;28;20152;-52
2022/07/30 09:10:34;;;;;;;5.73;4.53;;;;;;;30.26;34.96;94537.72;4169822;28;20104;-56
2022/07/30 09:12:40;;;;;;;4.78;4.15;;;;;;;30.31;35.20;94542.28;4176274;28;20057;-57
2022/07/30 09:15:00;;;;;;;5.13;4.38;;;;;;;30.18;35.34;94535.69;4189607;28;20078;-56
2022/07/30 09:17:02;;;;;;;7.47;4.47;;;;;;;30.03;35.15;94536.63;4171436;28;20472;-55
2022/07/30 09:19:12;;;;;;;7.80;4.00;;;;;;;30.11;35.31;94532.50;4176136;28;20133;-54
2022/07/30 09:21:15;;;;;;;4.53;4.05;;;;;;;30.30;35.08;94535.28;4172953;28;20049;-55
2022/07/30 09:23:16;;;;;;;5.45;4.75;;;;;;;30.44;34.58;94530.81;4164071;28;20469;-53
2022/07/30 09:25:42;;;;;;;6.35;4.18;;;;;;;30.60;34.24;94532.22;4175661;28;20049;-54
2022/07/30 09:27:47;;;;;;;5.93;4.82;;;;;;;30.59;34.45;94527.13;4169850;28;20089;-55
2022/07/30 09:29:57;;;;;;;5.60;4.38;;;;;;;30.44;34.30;94524.59;4169681;28;20096;-48
2022/07/30 09:32:02;;;;;;;6.50;4.15;;;;;;;30.38;34.77;94521.94;4162420;28;20395;-46
2022/07/30 09:34:22;;;;;;;6.63;4.45;;;;;;;30.34;34.75;94520.91;4168364;28;20119;-50
2022/07/30 09:36:30;;;;;;;5.43;4.20;;;;;;;30.12;35.13;94517.91;4174958;28;20101;-48
2022/07/30 09:38:46;;;;;;;5.20;4.13;;;;;;;30.13;35.16;94523.00;4179720;28;20118;-49
2022/07/30 09:40:53;;;;;;;5.20;4.70;;;;;;;30.38;34.91;94521.16;4162332;28;20108;-49
2022/07/30 09:43:24;;;;;;;6.15;4.50;;;;;;;30.48;34.19;94521.03;4175381;28;20056;-49
2022/07/30 09:45:28;;;;;;;4.57;3.90;;;;;;;30.60;34.11;94517.91;4143397;28;20080;-46
2022/07/30 09:47:43;;;;;;;5.70;4.20;;;;;;;30.69;34.06;94520.78;4163357;28;20347;-46
2022/07/30 09:49:45;;;;;;;7.68;4.40;;;;;;;30.91;34.32;94520.25;4171363;28;20164;-48
2022/07/30 09:51:49;;;;;;;4.63;3.97;;;;;;;30.97;33.47;94517.16;4160218;28;20064;-49